createdAt,value
2018-10-11T00:00:38.144Z,16.80
2018-10-11T00:03:13.281Z,16.80
2018-10-11T00:05:48.244Z,16.80
2018-10-11T00:08:23.150Z,16.80
2018-10-11T00:10:58.051Z,16.70
2018-10-11T00:13:33.291Z,16.70
2018-10-11T00:16:08.604Z,16.70
2018-10-11T00:18:44.071Z,16.70
2018-10-11T00:21:19.523Z,16.70
2018-10-11T00:23:54.411Z,16.60
2018-10-11T00:26:29.450Z,16.60
2018-10-11T00:29:04.316Z,16.50
2018-10-11T00:31:39.506Z,16.50
2018-10-11T00:34:14.613Z,16.50
2018-10-11T00:36:49.775Z,16.50
2018-10-11T00:39:25.208Z,16.40
2018-10-11T00:42:00.462Z,16.50
2018-10-11T00:44:35.518Z,16.50
2018-10-11T00:47:10.690Z,16.40
2018-10-11T00:49:46.146Z,16.50
2018-10-11T00:52:20.930Z,16.50
2018-10-11T00:54:55.832Z,16.50
2018-10-11T00:57:31.327Z,16.50
2018-10-11T01:00:06.626Z,16.50
2018-10-11T01:02:41.956Z,16.50
2018-10-11T01:05:16.952Z,16.50
2018-10-11T01:07:52.113Z,16.50
2018-10-11T01:10:26.986Z,16.50
2018-10-11T01:13:02.020Z,16.50
2018-10-11T01:15:37.485Z,16.50
2018-10-11T01:18:12.195Z,16.50
2018-10-11T01:20:47.142Z,16.50
2018-10-11T01:23:22.557Z,16.40
2018-10-11T01:25:57.599Z,16.40
2018-10-11T01:28:32.407Z,16.40
2018-10-11T01:31:13.340Z,16.40
2018-10-11T01:33:48.634Z,16.40
2018-10-11T01:36:23.560Z,16.40
2018-10-11T01:38:58.503Z,16.40
2018-10-11T01:41:34.223Z,16.30
2018-10-11T01:44:09.888Z,16.30
2018-10-11T01:46:44.878Z,16.30
2018-10-11T01:49:20.048Z,16.30
2018-10-11T01:51:54.902Z,16.40
2018-10-11T01:54:29.996Z,16.30
2018-10-11T01:57:05.126Z,16.30
2018-10-11T01:59:40.207Z,16.30
2018-10-11T02:02:15.421Z,16.20
2018-10-11T02:04:50.233Z,16.10
2018-10-11T02:07:25.229Z,16.10
2018-10-11T02:10:00.094Z,16.10
2018-10-11T02:12:35.781Z,16.10
2018-10-11T02:15:11.273Z,16.00
2018-10-11T02:17:46.525Z,15.90
2018-10-11T02:20:21.716Z,15.80
2018-10-11T02:22:56.868Z,15.80
2018-10-11T02:25:31.848Z,15.70
2018-10-11T02:28:08.008Z,15.70
2018-10-11T02:30:43.404Z,15.70
2018-10-11T02:33:18.579Z,15.70
2018-10-11T02:35:54.375Z,15.60
2018-10-11T02:38:29.106Z,15.60
2018-10-11T02:41:04.146Z,15.70
2018-10-11T02:43:39.377Z,15.70
2018-10-11T02:46:14.440Z,15.70
2018-10-11T02:48:49.460Z,15.70
2018-10-11T02:51:24.758Z,15.70
2018-10-11T02:54:00.187Z,15.70
2018-10-11T02:56:35.867Z,15.70
2018-10-11T02:59:30.266Z,15.70
2018-10-11T03:02:12.445Z,15.70
2018-10-11T03:04:48.437Z,15.70
2018-10-11T03:07:24.497Z,15.60
2018-10-11T03:09:59.330Z,15.60
2018-10-11T03:12:35.065Z,15.50
2018-10-11T03:15:10.400Z,15.50
2018-10-11T03:17:45.465Z,15.40
2018-10-11T03:20:20.760Z,15.40
2018-10-11T03:22:56.757Z,15.40
2018-10-11T03:25:31.767Z,15.40
2018-10-11T03:28:06.624Z,15.40
2018-10-11T03:30:41.905Z,15.50
2018-10-11T03:33:17.563Z,15.40
2018-10-11T03:35:52.707Z,15.30
2018-10-11T03:38:27.883Z,15.30
2018-10-11T03:41:02.944Z,15.30
2018-10-11T03:43:42.109Z,15.30
2018-10-11T03:46:17.280Z,15.20
2018-10-11T03:48:52.415Z,15.20
2018-10-11T03:51:27.258Z,15.20
2018-10-11T03:54:02.531Z,15.20
2018-10-11T03:56:38.123Z,15.20
2018-10-11T03:59:13.257Z,15.10
2018-10-11T04:01:48.084Z,15.10
2018-10-11T04:04:23.402Z,15.10
2018-10-11T04:06:58.820Z,15.00
2018-10-11T04:09:34.629Z,15.00
2018-10-11T04:12:10.204Z,15.10
2018-10-11T04:14:45.693Z,15.10
2018-10-11T04:17:20.732Z,15.10
2018-10-11T04:19:55.796Z,15.10
2018-10-11T04:22:30.623Z,15.10
2018-10-11T04:25:06.513Z,15.20
2018-10-11T04:27:41.472Z,15.20
2018-10-11T04:30:16.526Z,15.20
2018-10-11T04:32:51.498Z,15.20
2018-10-11T04:35:26.772Z,15.30
2018-10-11T04:38:01.607Z,15.20
2018-10-11T04:40:37.770Z,15.20
2018-10-11T04:43:13.360Z,15.20
2018-10-11T04:45:48.428Z,15.20
2018-10-11T04:48:17.982Z,15.20
2018-10-11T04:50:47.364Z,15.20
2018-10-11T04:53:16.917Z,15.20
2018-10-11T04:55:46.647Z,15.20
2018-10-11T04:58:16.516Z,15.20
2018-10-11T05:00:46.100Z,15.20
2018-10-11T05:03:15.951Z,15.20
2018-10-11T05:05:45.522Z,15.20
2018-10-11T05:08:15.540Z,15.20
2018-10-11T05:10:45.105Z,15.20
2018-10-11T05:13:15.310Z,15.10
2018-10-11T05:15:45.540Z,15.10
2018-10-11T05:18:17.052Z,15.10
2018-10-11T05:20:46.642Z,15.10
2018-10-11T05:23:15.791Z,15.10
2018-10-11T05:25:45.193Z,15.10
2018-10-11T05:28:14.448Z,15.00
2018-10-11T05:30:45.590Z,15.00
2018-10-11T05:33:21.247Z,15.10
2018-10-11T05:35:56.620Z,15.00
2018-10-11T05:38:31.609Z,15.00
2018-10-11T05:41:01.147Z,15.10
2018-10-11T05:43:30.776Z,15.10
2018-10-11T05:46:02.186Z,15.10
2018-10-11T05:48:33.177Z,15.20
2018-10-11T05:51:04.291Z,15.20
2018-10-11T05:53:39.781Z,15.10
2018-10-11T05:56:15.939Z,15.10
2018-10-11T05:58:52.871Z,15.20
2018-10-11T06:01:28.851Z,15.20
2018-10-11T06:03:58.863Z,15.20
2018-10-11T06:06:28.964Z,15.10
2018-10-11T06:08:58.526Z,15.10
2018-10-11T06:11:33.922Z,15.10
2018-10-11T06:14:09.942Z,15.10
2018-10-11T06:16:39.316Z,15.20
2018-10-11T06:19:09.171Z,15.20
2018-10-11T06:21:44.543Z,15.20
2018-10-11T06:24:19.426Z,15.20
2018-10-11T06:26:54.679Z,15.20
2018-10-11T06:29:30.371Z,15.20
2018-10-11T06:32:05.487Z,15.20
2018-10-11T06:34:41.314Z,15.20
2018-10-11T06:37:16.874Z,15.30
2018-10-11T06:39:52.487Z,15.30
2018-10-11T06:42:27.871Z,15.20
2018-10-11T06:45:03.645Z,15.30
2018-10-11T06:47:39.216Z,15.30
2018-10-11T06:50:14.568Z,15.30
2018-10-11T06:52:49.730Z,15.40
2018-10-11T06:55:24.769Z,15.40
2018-10-11T06:57:59.812Z,15.40
2018-10-11T07:00:34.741Z,15.50
2018-10-11T07:03:09.759Z,15.50
2018-10-11T07:05:45.593Z,15.50
2018-10-11T07:08:21.234Z,15.60
2018-10-11T07:10:56.319Z,15.60
2018-10-11T07:13:31.537Z,15.60
2018-10-11T07:16:06.875Z,15.60
2018-10-11T07:18:42.043Z,15.70
2018-10-11T07:21:17.721Z,15.70
2018-10-11T07:23:53.216Z,15.70
2018-10-11T07:26:28.407Z,15.80
2018-10-11T07:29:03.316Z,15.80
2018-10-11T07:31:38.430Z,15.90
2018-10-11T07:34:13.517Z,15.90
2018-10-11T07:36:48.284Z,15.90
2018-10-11T07:39:23.162Z,15.90
2018-10-11T07:41:58.299Z,16.00
2018-10-11T07:44:33.372Z,16.00
2018-10-11T07:47:08.359Z,16.00
2018-10-11T07:49:44.481Z,16.00
2018-10-11T07:52:19.541Z,16.10
2018-10-11T07:54:54.977Z,16.10
2018-10-11T07:57:29.815Z,16.20
2018-10-11T08:00:05.522Z,16.20
2018-10-11T08:02:42.121Z,16.30
2018-10-11T08:05:17.013Z,16.30
2018-10-11T08:07:52.742Z,16.30
2018-10-11T08:10:27.951Z,16.30
2018-10-11T08:13:03.428Z,16.40
2018-10-11T08:15:38.351Z,16.40
2018-10-11T08:18:14.101Z,16.50
2018-10-11T08:20:49.108Z,16.50
2018-10-11T08:23:23.907Z,16.60
2018-10-11T08:25:59.798Z,16.70
2018-10-11T08:28:34.560Z,16.70
2018-10-11T08:31:11.042Z,16.80
2018-10-11T08:33:45.740Z,16.90
2018-10-11T08:36:21.684Z,16.90
2018-10-11T08:38:56.584Z,17.00
2018-10-11T08:41:31.500Z,17.00
2018-10-11T08:44:06.849Z,17.00
2018-10-11T08:46:42.020Z,17.00
2018-10-11T08:49:16.966Z,17.10
2018-10-11T08:51:52.156Z,17.20
2018-10-11T08:54:32.248Z,17.30
2018-10-11T08:57:07.699Z,17.40
2018-10-11T08:59:43.182Z,17.50
2018-10-11T09:02:18.306Z,17.70
2018-10-11T09:04:53.295Z,17.90
2018-10-11T09:07:28.246Z,18.00
2018-10-11T09:10:03.259Z,18.00
2018-10-11T09:12:38.375Z,18.10
2018-10-11T09:15:13.346Z,18.10
2018-10-11T09:17:48.672Z,18.10
2018-10-11T09:20:23.400Z,18.20
2018-10-11T09:22:58.356Z,18.20
2018-10-11T09:25:33.438Z,18.20
2018-10-11T09:28:08.862Z,18.20
2018-10-11T09:30:43.886Z,18.20
2018-10-11T09:33:19.700Z,18.20
2018-10-11T09:35:54.715Z,18.20
2018-10-11T09:38:30.019Z,18.10
2018-10-11T09:41:04.909Z,18.30
2018-10-11T09:43:39.858Z,18.40
2018-10-11T09:46:15.504Z,18.50
2018-10-11T09:48:51.745Z,18.60
2018-10-11T09:51:27.618Z,18.80
2018-10-11T09:54:02.669Z,18.80
2018-10-11T09:57:42.133Z,18.80
2018-10-11T10:00:22.263Z,18.80
2018-10-11T10:02:57.094Z,18.80
2018-10-11T10:05:32.033Z,18.80
2018-10-11T10:08:06.924Z,18.90
2018-10-11T10:10:41.963Z,19.00
2018-10-11T10:13:17.340Z,19.00
2018-10-11T10:15:52.801Z,19.00
2018-10-11T10:18:27.769Z,19.20
2018-10-11T10:21:02.953Z,19.30
2018-10-11T10:23:38.024Z,19.50
2018-10-11T10:26:13.138Z,19.70
2018-10-11T10:28:48.041Z,19.80
2018-10-11T10:31:23.190Z,20.00
2018-10-11T10:33:58.130Z,20.10
2018-10-11T10:36:33.689Z,20.10
2018-10-11T10:39:09.150Z,20.20
2018-10-11T10:41:43.964Z,20.30
2018-10-11T10:44:19.033Z,20.30
2018-10-11T10:46:54.710Z,20.40
2018-10-11T10:49:29.682Z,20.50
2018-10-11T10:52:04.806Z,20.60
2018-10-11T10:54:39.581Z,20.70
2018-10-11T10:57:14.568Z,20.70
2018-10-11T10:59:49.484Z,20.80
2018-10-11T11:02:24.562Z,20.80
2018-10-11T11:04:59.323Z,20.80
2018-10-11T11:07:34.192Z,20.80
2018-10-11T11:10:09.137Z,20.90
2018-10-11T11:12:44.572Z,21.00
2018-10-11T11:15:19.980Z,21.10
2018-10-11T11:17:55.059Z,21.20
2018-10-11T11:20:30.147Z,21.30
2018-10-11T11:23:05.017Z,21.30
2018-10-11T11:25:39.903Z,21.30
2018-10-11T11:28:14.847Z,21.30
2018-10-11T11:30:49.671Z,21.40
2018-10-11T11:33:24.676Z,21.50
2018-10-11T11:35:59.692Z,21.60
2018-10-11T11:38:35.226Z,21.80
2018-10-11T11:41:10.079Z,21.80
2018-10-11T11:43:45.173Z,21.90
2018-10-11T11:46:19.864Z,21.90
2018-10-11T11:48:55.501Z,22.00
2018-10-11T11:51:30.342Z,22.10
2018-10-11T11:54:09.432Z,22.10
2018-10-11T11:56:44.432Z,22.10
2018-10-11T11:59:19.431Z,22.20
2018-10-11T12:01:54.716Z,22.30
2018-10-11T12:04:29.482Z,22.60
2018-10-11T12:07:04.780Z,22.80
2018-10-11T12:09:40.311Z,22.90
2018-10-11T12:13:12.415Z,23.00
2018-10-11T12:15:47.172Z,22.90
2018-10-11T12:18:22.076Z,22.90
2018-10-11T12:20:57.168Z,22.80
2018-10-11T12:23:32.224Z,22.80
2018-10-11T12:26:08.390Z,22.80
2018-10-11T12:28:43.457Z,22.70
2018-10-11T12:31:18.485Z,22.70
2018-10-11T12:33:53.596Z,22.60
2018-10-11T12:36:28.658Z,22.50
2018-10-11T12:39:04.655Z,22.40
2018-10-11T12:41:39.513Z,22.30
2018-10-11T12:44:14.459Z,22.30
2018-10-11T12:46:49.364Z,22.20
2018-10-11T12:49:24.697Z,22.20
2018-10-11T12:52:00.018Z,22.20
2018-10-11T12:54:35.237Z,22.20
2018-10-11T12:57:15.076Z,22.20
2018-10-11T12:59:45.480Z,22.10
2018-10-11T13:02:20.409Z,22.10
2018-10-11T13:04:55.954Z,22.10
2018-10-11T13:07:31.325Z,22.00
2018-10-11T13:10:06.815Z,22.00
2018-10-11T13:12:42.461Z,22.00
2018-10-11T13:15:17.659Z,22.00
2018-10-11T13:17:52.879Z,22.00
2018-10-11T13:20:27.966Z,22.00
2018-10-11T13:23:03.044Z,22.00
2018-10-11T13:25:38.421Z,22.10
2018-10-11T13:28:14.445Z,22.10
2018-10-11T13:30:49.893Z,22.20
2018-10-11T13:33:25.749Z,22.20
2018-10-11T13:36:01.505Z,22.20
2018-10-11T13:38:36.934Z,22.20
2018-10-11T13:41:12.521Z,22.20
2018-10-11T13:43:47.896Z,22.30
2018-10-11T13:46:22.572Z,22.30
2018-10-11T13:48:57.938Z,22.30
2018-10-11T13:51:32.833Z,22.30
2018-10-11T13:54:07.657Z,22.30
2018-10-11T13:56:42.781Z,22.30
2018-10-11T13:59:17.718Z,22.30
2018-10-11T14:01:52.556Z,22.30
2018-10-11T14:04:28.355Z,22.30
2018-10-11T14:07:04.069Z,22.20
2018-10-11T14:09:40.112Z,22.20
2018-10-11T14:12:15.173Z,22.10
2018-10-11T14:14:50.182Z,22.10
2018-10-11T14:17:25.475Z,22.00
2018-10-11T14:20:00.290Z,22.00
2018-10-11T14:22:35.358Z,22.00
2018-10-11T14:25:10.827Z,22.10
2018-10-11T14:27:47.196Z,22.10
2018-10-11T14:30:22.512Z,22.20
2018-10-11T14:32:57.765Z,22.20
2018-10-11T14:35:33.303Z,22.30
2018-10-11T14:38:08.792Z,22.50
2018-10-11T14:40:43.827Z,22.60
2018-10-11T14:43:19.020Z,22.90
2018-10-11T14:45:53.963Z,23.10
2018-10-11T14:48:29.141Z,23.30
2018-10-11T14:51:04.345Z,23.40
2018-10-11T14:53:39.324Z,23.50
2018-10-11T14:56:14.325Z,23.60
2018-10-11T14:58:49.362Z,23.50
2018-10-11T15:01:24.579Z,23.40
2018-10-11T15:03:59.450Z,23.30
2018-10-11T15:06:34.216Z,23.10
2018-10-11T15:09:10.164Z,22.90
2018-10-11T15:11:45.290Z,22.80
2018-10-11T15:14:20.508Z,22.60
2018-10-11T15:16:56.146Z,22.50
2018-10-11T15:19:31.110Z,22.40
2018-10-11T15:22:06.201Z,22.30
2018-10-11T15:24:41.387Z,22.20
2018-10-11T15:27:17.080Z,22.10
2018-10-11T15:29:52.077Z,22.10
2018-10-11T15:32:27.289Z,22.10
2018-10-11T15:35:02.376Z,22.00
2018-10-11T15:37:38.331Z,22.00
2018-10-11T15:40:13.524Z,22.00
2018-10-11T15:42:48.347Z,22.10
2018-10-11T15:45:23.522Z,22.20
2018-10-11T15:47:59.216Z,22.30
2018-10-11T15:50:34.197Z,22.40
2018-10-11T15:53:09.301Z,22.50
2018-10-11T15:55:44.173Z,22.50
2018-10-11T15:58:19.800Z,22.60
2018-10-11T16:00:55.095Z,22.60
2018-10-11T16:03:30.115Z,22.70
2018-10-11T16:06:05.242Z,22.70
2018-10-11T16:08:40.207Z,22.70
2018-10-11T16:11:15.393Z,22.70
2018-10-11T16:13:50.364Z,22.70
2018-10-11T16:16:25.628Z,22.70
2018-10-11T16:19:00.399Z,22.70
2018-10-11T16:21:35.590Z,22.60
2018-10-11T16:24:11.648Z,22.60
2018-10-11T16:26:46.677Z,22.50
2018-10-11T16:29:21.992Z,22.40
2018-10-11T16:31:56.827Z,22.30
2018-10-11T16:34:31.956Z,22.10
2018-10-11T16:37:06.853Z,22.00
2018-10-11T16:39:42.074Z,21.80
2018-10-11T16:42:17.139Z,21.70
2018-10-11T16:44:52.004Z,21.50
2018-10-11T16:47:27.497Z,21.40
2018-10-11T16:50:02.706Z,21.30
2018-10-11T16:52:38.123Z,21.20
2018-10-11T16:55:13.641Z,21.10
2018-10-11T16:57:48.625Z,21.00
2018-10-11T17:00:24.093Z,20.90
2018-10-11T17:02:58.923Z,20.80
2018-10-11T17:05:34.112Z,20.80
2018-10-11T17:08:13.622Z,20.70
2018-10-11T17:10:48.752Z,20.60
2018-10-11T17:13:23.745Z,20.50
2018-10-11T17:15:58.890Z,20.40
2018-10-11T17:18:33.696Z,20.40
2018-10-11T17:21:09.239Z,20.30
2018-10-11T17:23:44.376Z,20.30
2018-10-11T17:26:19.727Z,20.20
2018-10-11T17:28:54.689Z,20.20
2018-10-11T17:31:29.769Z,20.10
2018-10-11T17:34:04.741Z,20.10
2018-10-11T17:36:39.594Z,20.00
2018-10-11T17:39:14.614Z,20.00
2018-10-11T17:41:49.666Z,20.00
2018-10-11T17:44:24.886Z,19.90
2018-10-11T17:46:59.887Z,19.90
2018-10-11T17:49:35.066Z,19.90
2018-10-11T17:52:10.011Z,19.90
2018-10-11T17:54:50.129Z,19.80
2018-10-11T17:57:25.517Z,19.80
2018-10-11T18:00:00.623Z,19.80
2018-10-11T18:02:36.309Z,19.70
2018-10-11T18:05:11.287Z,19.70
2018-10-11T18:07:46.279Z,19.70
2018-10-11T18:10:21.431Z,19.60
2018-10-11T18:12:56.720Z,19.60
2018-10-11T18:15:32.165Z,19.60
2018-10-11T18:18:07.712Z,19.60
2018-10-11T18:20:42.616Z,19.60
2018-10-11T18:23:17.368Z,19.60
2018-10-11T18:25:52.636Z,19.60
2018-10-11T18:28:27.486Z,19.60
2018-10-11T18:31:02.877Z,19.50
2018-10-11T18:33:37.876Z,19.50
2018-10-11T18:36:14.215Z,19.50
2018-10-11T18:38:49.757Z,19.40
2018-10-11T18:41:24.859Z,19.40
2018-10-11T18:44:00.065Z,19.40
2018-10-11T18:46:35.521Z,19.40
2018-10-11T18:49:12.798Z,19.40
2018-10-11T18:51:48.571Z,19.40
2018-10-11T18:54:24.185Z,19.30
2018-10-11T18:56:59.579Z,19.30
2018-10-11T18:59:34.786Z,19.30
2018-10-11T19:02:09.860Z,19.30
2018-10-11T19:04:45.814Z,19.20
2018-10-11T19:07:21.778Z,19.20
2018-10-11T19:10:01.242Z,19.20
2018-10-11T19:12:36.960Z,19.20
2018-10-11T19:15:12.539Z,19.10
2018-10-11T19:17:47.973Z,19.10
2018-10-11T19:20:23.292Z,19.10
2018-10-11T19:22:58.208Z,19.10
2018-10-11T19:25:33.614Z,19.10
2018-10-11T19:28:09.459Z,19.10
2018-10-11T19:30:44.537Z,19.00
2018-10-11T19:33:19.955Z,19.00
2018-10-11T19:35:55.453Z,18.90
2018-10-11T19:38:30.470Z,18.90
2018-10-11T19:41:05.597Z,18.90
2018-10-11T19:43:41.481Z,18.80
2018-10-11T19:46:16.868Z,18.80
2018-10-11T19:48:52.290Z,18.90
2018-10-11T19:51:27.820Z,18.80
2018-10-11T19:54:03.265Z,18.90
2018-10-11T19:56:38.863Z,18.80
2018-10-11T19:59:14.044Z,18.80
2018-10-11T20:01:49.161Z,18.80
2018-10-11T20:04:24.286Z,18.80
2018-10-11T20:07:00.322Z,18.70
2018-10-11T20:09:36.636Z,18.70
2018-10-11T20:12:12.100Z,18.70
2018-10-11T20:14:47.633Z,18.70
2018-10-11T20:17:23.678Z,18.70
2018-10-11T20:19:58.632Z,18.70
2018-10-11T20:22:34.237Z,18.60
2018-10-11T20:25:09.732Z,18.60
2018-10-11T20:27:44.659Z,18.60
2018-10-11T20:30:20.768Z,18.60
2018-10-11T20:32:56.067Z,18.60
2018-10-11T20:35:31.905Z,18.60
2018-10-11T20:38:07.254Z,18.50
2018-10-11T20:40:43.582Z,18.50
2018-10-11T20:43:19.376Z,18.50
2018-10-11T20:45:55.266Z,18.50
2018-10-11T20:48:31.178Z,18.50
2018-10-11T20:51:07.854Z,18.50
2018-10-11T20:53:43.372Z,18.40
2018-10-11T20:56:18.473Z,18.40
2018-10-11T20:58:53.727Z,18.30
2018-10-11T21:01:29.427Z,18.30
2018-10-11T21:03:58.922Z,18.30
2018-10-11T21:06:34.184Z,18.20
2018-10-11T21:09:10.550Z,18.20
2018-10-11T21:11:45.867Z,18.20
2018-10-11T21:14:21.880Z,18.20
2018-10-11T21:16:56.902Z,18.20
2018-10-11T21:19:32.399Z,18.20
2018-10-11T21:22:08.121Z,18.20
2018-10-11T21:24:44.449Z,18.10
2018-10-11T21:27:19.662Z,18.10
2018-10-11T21:29:55.174Z,18.00
2018-10-11T21:32:24.665Z,18.00
2018-10-11T21:35:00.135Z,18.00
2018-10-11T21:37:35.569Z,18.00
2018-10-11T21:40:11.296Z,18.00
2018-10-11T21:42:46.357Z,18.00
2018-10-11T21:45:21.598Z,17.90
2018-10-11T21:47:56.852Z,17.90
2018-10-11T21:50:32.176Z,17.90
2018-10-11T21:53:02.200Z,17.80
2018-10-11T21:55:37.318Z,17.80
2018-10-11T21:58:12.442Z,17.80
2018-10-11T22:00:53.376Z,17.80
2018-10-11T22:03:28.497Z,17.80
2018-10-11T22:06:03.589Z,17.80
2018-10-11T22:08:38.725Z,17.80
2018-10-11T22:11:13.995Z,17.80
2018-10-11T22:13:49.062Z,17.80
2018-10-11T22:16:24.665Z,17.80
2018-10-11T22:19:00.717Z,17.80
2018-10-11T22:21:36.714Z,17.80
2018-10-11T22:24:11.791Z,17.80
2018-10-11T22:26:47.059Z,17.80
2018-10-11T22:29:22.861Z,17.80
2018-10-11T22:31:58.902Z,17.80
2018-10-11T22:34:35.021Z,17.80
2018-10-11T22:37:10.383Z,17.80
2018-10-11T22:39:46.410Z,17.80
2018-10-11T22:42:21.768Z,17.70
2018-10-11T22:44:57.146Z,17.70
2018-10-11T22:47:32.384Z,17.70
2018-10-11T22:50:09.562Z,17.60
2018-10-11T22:52:45.131Z,17.60
2018-10-11T22:55:20.464Z,17.60
2018-10-11T22:57:50.042Z,17.60
2018-10-11T23:00:25.894Z,17.50
2018-10-11T23:03:01.369Z,17.50
2018-10-11T23:05:36.857Z,17.50
2018-10-11T23:08:12.954Z,17.50
2018-10-11T23:10:48.544Z,17.50
2018-10-11T23:13:26.280Z,17.50
2018-10-11T23:16:02.259Z,17.50
2018-10-11T23:18:37.309Z,17.40
2018-10-11T23:21:13.638Z,17.40
2018-10-11T23:23:49.388Z,17.40
2018-10-11T23:26:24.525Z,17.40
2018-10-11T23:29:00.014Z,17.40
2018-10-11T23:31:35.150Z,17.40
2018-10-11T23:34:10.429Z,17.40
2018-10-11T23:36:46.590Z,17.30
2018-10-11T23:39:21.857Z,17.30
2018-10-11T23:41:57.526Z,17.30
2018-10-11T23:44:32.407Z,17.30
2018-10-11T23:47:07.917Z,17.30
2018-10-11T23:49:42.763Z,17.30
2018-10-11T23:52:17.552Z,17.30
2018-10-11T23:54:52.485Z,17.30
2018-10-11T23:57:27.181Z,17.30
